sensor_id;sensor_type;location;lat;lon;timestamp;P1;durP1;ratioP1;P2;durP2;ratioP2
13461;SDS011;6803;45.264;5.468;2023-08-07T00:01:04;1.63;;;1.07;;
13461;SDS011;6803;45.264;5.468;2023-08-07T00:03:36;1.43;;;1.30;;
13461;SDS011;6803;45.264;5.468;2023-08-07T00:06:07;1.10;;;1.00;;
13461;SDS011;6803;45.264;5.468;2023-08-07T00:08:37;2.20;;;1.10;;
13461;SDS011;6803;45.264;5.468;2023-08-07T00:11:08;2.37;;;1.10;;
13461;SDS011;6803;45.264;5.468;2023-08-07T00:13:39;1.70;;;1.20;;
13461;SDS011;6803;45.264;5.468;2023-08-07T00:16:10;2.20;;;1.20;;
13461;SDS011;6803;45.264;5.468;2023-08-07T00:18:41;2.43;;;1.03;;
13461;SDS011;6803;45.264;5.468;2023-08-07T00:21:11;2.20;;;1.73;;
13461;SDS011;6803;45.264;5.468;2023-08-07T00:23:42;1.30;;;1.00;;
13461;SDS011;6803;45.264;5.468;2023-08-07T00:26:13;4.20;;;1.47;;
13461;SDS011;6803;45.264;5.468;2023-08-07T00:28:44;7.50;;;1.43;;
13461;SDS011;6803;45.264;5.468;2023-08-07T00:31:15;2.57;;;1.10;;
13461;SDS011;6803;45.264;5.468;2023-08-07T00:33:45;1.77;;;1.10;;
13461;SDS011;6803;45.264;5.468;2023-08-07T00:36:18;5.70;;;1.33;;
13461;SDS011;6803;45.264;5.468;2023-08-07T00:38:49;3.27;;;1.37;;
13461;SDS011;6803;45.264;5.468;2023-08-07T00:41:20;2.03;;;1.27;;
13461;SDS011;6803;45.264;5.468;2023-08-07T00:43:51;3.77;;;1.30;;
13461;SDS011;6803;45.264;5.468;2023-08-07T00:46:22;1.60;;;1.10;;
13461;SDS011;6803;45.264;5.468;2023-08-07T00:48:53;6.57;;;1.13;;
13461;SDS011;6803;45.264;5.468;2023-08-07T00:51:25;3.10;;;1.43;;
13461;SDS011;6803;45.264;5.468;2023-08-07T00:53:56;2.83;;;1.53;;
13461;SDS011;6803;45.264;5.468;2023-08-07T00:56:27;3.53;;;1.57;;
13461;SDS011;6803;45.264;5.468;2023-08-07T00:58:58;2.90;;;1.40;;
13461;SDS011;6803;45.264;5.468;2023-08-07T01:01:30;2.83;;;1.20;;
13461;SDS011;6803;45.264;5.468;2023-08-07T01:04:01;1.70;;;1.10;;
13461;SDS011;6803;45.264;5.468;2023-08-07T01:06:32;5.03;;;1.20;;
13461;SDS011;6803;45.264;5.468;2023-08-07T01:09:03;3.00;;;1.10;;
13461;SDS011;6803;45.264;5.468;2023-08-07T01:11:34;2.23;;;1.20;;
13461;SDS011;6803;45.264;5.468;2023-08-07T01:14:10;3.07;;;1.00;;
13461;SDS011;6803;45.264;5.468;2023-08-07T01:16:51;2.50;;;1.20;;
13461;SDS011;6803;45.264;5.468;2023-08-07T01:19:26;1.13;;;0.93;;
13461;SDS011;6803;45.264;5.468;2023-08-07T01:22:07;3.50;;;1.10;;
13461;SDS011;6803;45.264;5.468;2023-08-07T01:24:38;1.20;;;1.10;;
13461;SDS011;6803;45.264;5.468;2023-08-07T01:27:14;2.33;;;1.10;;
13461;SDS011;6803;45.264;5.468;2023-08-07T01:29:54;3.27;;;1.80;;
13461;SDS011;6803;45.264;5.468;2023-08-07T01:32:22;4.03;;;1.53;;
13461;SDS011;6803;45.264;5.468;2023-08-07T01:34:56;2.50;;;1.20;;
13461;SDS011;6803;45.264;5.468;2023-08-07T01:37:27;1.10;;;1.00;;
13461;SDS011;6803;45.264;5.468;2023-08-07T01:40:00;1.20;;;1.10;;
13461;SDS011;6803;45.264;5.468;2023-08-07T01:42:32;2.23;;;1.23;;
13461;SDS011;6803;45.264;5.468;2023-08-07T01:45:05;2.80;;;1.10;;
13461;SDS011;6803;45.264;5.468;2023-08-07T01:47:36;3.37;;;1.23;;
13461;SDS011;6803;45.264;5.468;2023-08-07T01:50:07;2.40;;;1.00;;
13461;SDS011;6803;45.264;5.468;2023-08-07T01:52:38;1.93;;;1.10;;
13461;SDS011;6803;45.264;5.468;2023-08-07T01:55:09;2.77;;;1.10;;
13461;SDS011;6803;45.264;5.468;2023-08-07T01:57:39;3.20;;;1.00;;
13461;SDS011;6803;45.264;5.468;2023-08-07T02:00:11;3.07;;;1.40;;
13461;SDS011;6803;45.264;5.468;2023-08-07T02:02:42;1.77;;;1.10;;
13461;SDS011;6803;45.264;5.468;2023-08-07T02:05:15;4.03;;;1.50;;
13461;SDS011;6803;45.264;5.468;2023-08-07T02:07:46;2.73;;;1.30;;
13461;SDS011;6803;45.264;5.468;2023-08-07T02:10:17;1.37;;;1.07;;
13461;SDS011;6803;45.264;5.468;2023-08-07T02:12:48;2.20;;;1.20;;
13461;SDS011;6803;45.264;5.468;2023-08-07T02:15:19;2.00;;;1.20;;
13461;SDS011;6803;45.264;5.468;2023-08-07T02:17:50;2.43;;;1.10;;
13461;SDS011;6803;45.264;5.468;2023-08-07T02:20:21;1.10;;;1.00;;
13461;SDS011;6803;45.264;5.468;2023-08-07T02:22:51;1.20;;;1.03;;
13461;SDS011;6803;45.264;5.468;2023-08-07T02:25:22;1.43;;;1.10;;
13461;SDS011;6803;45.264;5.468;2023-08-07T02:27:53;1.27;;;1.00;;
13461;SDS011;6803;45.264;5.468;2023-08-07T02:30:24;3.53;;;1.17;;
13461;SDS011;6803;45.264;5.468;2023-08-07T02:32:54;5.37;;;1.47;;
13461;SDS011;6803;45.264;5.468;2023-08-07T02:35:25;2.90;;;1.30;;
13461;SDS011;6803;45.264;5.468;2023-08-07T02:37:56;2.70;;;1.30;;
13461;SDS011;6803;45.264;5.468;2023-08-07T02:40:27;2.43;;;1.10;;
13461;SDS011;6803;45.264;5.468;2023-08-07T02:42:58;1.40;;;1.20;;
13461;SDS011;6803;45.264;5.468;2023-08-07T02:45:29;3.80;;;1.37;;
13461;SDS011;6803;45.264;5.468;2023-08-07T02:47:59;4.73;;;1.57;;
13461;SDS011;6803;45.264;5.468;2023-08-07T02:50:30;1.97;;;1.27;;
13461;SDS011;6803;45.264;5.468;2023-08-07T02:53:01;2.02;;;1.25;;
13461;SDS011;6803;45.264;5.468;2023-08-07T02:55:32;3.00;;;1.23;;
13461;SDS011;6803;45.264;5.468;2023-08-07T02:58:03;1.93;;;1.33;;
13461;SDS011;6803;45.264;5.468;2023-08-07T03:00:35;1.60;;;1.20;;
13461;SDS011;6803;45.264;5.468;2023-08-07T03:03:05;5.30;;;1.20;;
13461;SDS011;6803;45.264;5.468;2023-08-07T03:05:36;1.13;;;1.03;;
13461;SDS011;6803;45.264;5.468;2023-08-07T03:08:07;3.27;;;1.60;;
13461;SDS011;6803;45.264;5.468;2023-08-07T03:10:37;1.70;;;1.10;;
13461;SDS011;6803;45.264;5.468;2023-08-07T03:13:08;2.10;;;1.40;;
13461;SDS011;6803;45.264;5.468;2023-08-07T03:15:39;3.63;;;1.30;;
13461;SDS011;6803;45.264;5.468;2023-08-07T03:18:10;2.63;;;1.30;;
13461;SDS011;6803;45.264;5.468;2023-08-07T03:20:41;3.30;;;1.60;;
13461;SDS011;6803;45.264;5.468;2023-08-07T03:23:11;1.93;;;1.40;;
13461;SDS011;6803;45.264;5.468;2023-08-07T03:25:42;3.47;;;1.60;;
13461;SDS011;6803;45.264;5.468;2023-08-07T03:28:13;2.90;;;1.30;;
13461;SDS011;6803;45.264;5.468;2023-08-07T03:30:43;2.70;;;1.40;;
13461;SDS011;6803;45.264;5.468;2023-08-07T03:33:14;2.40;;;1.30;;
13461;SDS011;6803;45.264;5.468;2023-08-07T03:35:45;2.03;;;1.40;;
13461;SDS011;6803;45.264;5.468;2023-08-07T03:38:15;2.87;;;1.40;;
13461;SDS011;6803;45.264;5.468;2023-08-07T03:40:46;2.07;;;1.20;;
13461;SDS011;6803;45.264;5.468;2023-08-07T03:43:17;3.50;;;1.50;;
13461;SDS011;6803;45.264;5.468;2023-08-07T03:45:53;4.20;;;1.33;;
13461;SDS011;6803;45.264;5.468;2023-08-07T03:48:26;1.93;;;1.23;;
13461;SDS011;6803;45.264;5.468;2023-08-07T03:51:02;3.43;;;1.33;;
13461;SDS011;6803;45.264;5.468;2023-08-07T03:53:34;1.53;;;1.13;;
13461;SDS011;6803;45.264;5.468;2023-08-07T03:56:05;2.30;;;1.40;;
13461;SDS011;6803;45.264;5.468;2023-08-07T03:58:36;2.10;;;1.33;;
13461;SDS011;6803;45.264;5.468;2023-08-07T04:01:06;3.03;;;1.17;;
13461;SDS011;6803;45.264;5.468;2023-08-07T04:03:39;2.20;;;1.10;;
13461;SDS011;6803;45.264;5.468;2023-08-07T04:06:09;1.83;;;1.40;;
13461;SDS011;6803;45.264;5.468;2023-08-07T04:08:42;2.17;;;1.20;;
13461;SDS011;6803;45.264;5.468;2023-08-07T04:11:13;3.30;;;1.50;;
13461;SDS011;6803;45.264;5.468;2023-08-07T04:13:45;2.60;;;1.40;;
13461;SDS011;6803;45.264;5.468;2023-08-07T04:16:16;2.53;;;1.30;;
13461;SDS011;6803;45.264;5.468;2023-08-07T04:18:46;3.13;;;1.50;;
13461;SDS011;6803;45.264;5.468;2023-08-07T04:21:17;1.30;;;1.20;;
13461;SDS011;6803;45.264;5.468;2023-08-07T04:23:48;1.23;;;1.03;;
13461;SDS011;6803;45.264;5.468;2023-08-07T04:26:19;2.27;;;1.40;;
13461;SDS011;6803;45.264;5.468;2023-08-07T04:28:50;2.17;;;1.40;;
13461;SDS011;6803;45.264;5.468;2023-08-07T04:31:20;3.60;;;1.20;;
13461;SDS011;6803;45.264;5.468;2023-08-07T04:36:30;2.10;;;1.10;;
13461;SDS011;6803;45.264;5.468;2023-08-07T04:39:01;3.13;;;1.37;;
13461;SDS011;6803;45.264;5.468;2023-08-07T04:41:32;4.00;;;1.20;;
13461;SDS011;6803;45.264;5.468;2023-08-07T04:44:03;2.20;;;1.20;;
13461;SDS011;6803;45.264;5.468;2023-08-07T04:46:34;1.77;;;1.17;;
13461;SDS011;6803;45.264;5.468;2023-08-07T04:49:05;1.73;;;1.10;;
13461;SDS011;6803;45.264;5.468;2023-08-07T04:51:36;2.10;;;1.13;;
13461;SDS011;6803;45.264;5.468;2023-08-07T04:54:07;2.40;;;1.50;;
13461;SDS011;6803;45.264;5.468;2023-08-07T04:56:37;2.97;;;1.20;;
13461;SDS011;6803;45.264;5.468;2023-08-07T04:59:10;6.37;;;1.40;;
13461;SDS011;6803;45.264;5.468;2023-08-07T05:01:41;1.83;;;1.40;;
13461;SDS011;6803;45.264;5.468;2023-08-07T05:04:12;1.30;;;1.10;;
13461;SDS011;6803;45.264;5.468;2023-08-07T05:06:43;1.67;;;1.20;;
13461;SDS011;6803;45.264;5.468;2023-08-07T05:09:13;1.90;;;1.20;;
13461;SDS011;6803;45.264;5.468;2023-08-07T05:11:44;2.27;;;1.40;;
13461;SDS011;6803;45.264;5.468;2023-08-07T05:14:16;2.00;;;1.33;;
13461;SDS011;6803;45.264;5.468;2023-08-07T05:16:47;2.37;;;1.50;;
13461;SDS011;6803;45.264;5.468;2023-08-07T05:19:18;2.20;;;1.30;;
13461;SDS011;6803;45.264;5.468;2023-08-07T05:21:49;1.83;;;1.20;;
13461;SDS011;6803;45.264;5.468;2023-08-07T05:24:20;1.63;;;1.00;;
13461;SDS011;6803;45.264;5.468;2023-08-07T05:26:51;1.37;;;1.20;;
13461;SDS011;6803;45.264;5.468;2023-08-07T05:29:22;3.93;;;1.53;;
13461;SDS011;6803;45.264;5.468;2023-08-07T05:31:52;2.90;;;1.70;;
13461;SDS011;6803;45.264;5.468;2023-08-07T05:34:24;1.83;;;1.33;;
13461;SDS011;6803;45.264;5.468;2023-08-07T05:36:54;2.43;;;1.30;;
13461;SDS011;6803;45.264;5.468;2023-08-07T05:39:25;1.30;;;1.10;;
13461;SDS011;6803;45.264;5.468;2023-08-07T05:41:56;1.90;;;1.30;;
13461;SDS011;6803;45.264;5.468;2023-08-07T05:44:28;1.50;;;1.40;;
13461;SDS011;6803;45.264;5.468;2023-08-07T05:46:59;2.50;;;1.40;;
13461;SDS011;6803;45.264;5.468;2023-08-07T05:49:30;2.03;;;1.40;;
13461;SDS011;6803;45.264;5.468;2023-08-07T05:52:01;1.83;;;1.20;;
13461;SDS011;6803;45.264;5.468;2023-08-07T05:54:34;1.52;;;1.20;;
13461;SDS011;6803;45.264;5.468;2023-08-07T05:57:05;1.67;;;1.40;;
13461;SDS011;6803;45.264;5.468;2023-08-07T05:59:36;2.23;;;1.77;;
13461;SDS011;6803;45.264;5.468;2023-08-07T06:02:08;1.20;;;1.03;;
13461;SDS011;6803;45.264;5.468;2023-08-07T06:04:40;4.40;;;1.20;;
13461;SDS011;6803;45.264;5.468;2023-08-07T06:07:11;1.33;;;0.90;;
13461;SDS011;6803;45.264;5.468;2023-08-07T06:09:41;1.87;;;1.40;;
13461;SDS011;6803;45.264;5.468;2023-08-07T06:12:12;2.62;;;1.42;;
13461;SDS011;6803;45.264;5.468;2023-08-07T06:14:43;2.10;;;1.10;;
13461;SDS011;6803;45.264;5.468;2023-08-07T06:17:14;4.00;;;1.30;;
13461;SDS011;6803;45.264;5.468;2023-08-07T06:19:45;1.00;;;0.90;;
13461;SDS011;6803;45.264;5.468;2023-08-07T06:22:16;2.63;;;1.10;;
13461;SDS011;6803;45.264;5.468;2023-08-07T06:24:47;2.23;;;1.20;;
13461;SDS011;6803;45.264;5.468;2023-08-07T06:27:18;4.07;;;1.17;;
13461;SDS011;6803;45.264;5.468;2023-08-07T06:29:49;4.00;;;1.30;;
13461;SDS011;6803;45.264;5.468;2023-08-07T06:32:20;1.20;;;0.87;;
13461;SDS011;6803;45.264;5.468;2023-08-07T06:34:51;1.60;;;1.17;;
13461;SDS011;6803;45.264;5.468;2023-08-07T06:37:22;1.23;;;1.00;;
13461;SDS011;6803;45.264;5.468;2023-08-07T06:39:53;3.60;;;1.60;;
13461;SDS011;6803;45.264;5.468;2023-08-07T06:42:23;2.53;;;1.20;;
13461;SDS011;6803;45.264;5.468;2023-08-07T06:44:54;1.60;;;0.90;;
13461;SDS011;6803;45.264;5.468;2023-08-07T06:47:25;3.62;;;1.07;;
13461;SDS011;6803;45.264;5.468;2023-08-07T06:49:56;2.10;;;1.20;;
13461;SDS011;6803;45.264;5.468;2023-08-07T06:52:27;1.10;;;1.00;;
13461;SDS011;6803;45.264;5.468;2023-08-07T06:54:58;2.33;;;1.10;;
13461;SDS011;6803;45.264;5.468;2023-08-07T06:57:28;1.43;;;1.10;;
13461;SDS011;6803;45.264;5.468;2023-08-07T06:59:59;1.27;;;0.90;;
13461;SDS011;6803;45.264;5.468;2023-08-07T07:02:30;1.77;;;1.10;;
13461;SDS011;6803;45.264;5.468;2023-08-07T07:05:01;1.60;;;1.17;;
13461;SDS011;6803;45.264;5.468;2023-08-07T07:07:32;2.10;;;1.00;;
13461;SDS011;6803;45.264;5.468;2023-08-07T07:10:11;2.90;;;1.07;;
13461;SDS011;6803;45.264;5.468;2023-08-07T07:12:42;1.70;;;1.07;;
13461;SDS011;6803;45.264;5.468;2023-08-07T07:15:13;1.57;;;1.17;;
13461;SDS011;6803;45.264;5.468;2023-08-07T07:17:44;1.90;;;0.80;;
13461;SDS011;6803;45.264;5.468;2023-08-07T07:20:15;1.80;;;1.30;;
13461;SDS011;6803;45.264;5.468;2023-08-07T07:22:46;1.47;;;1.27;;
13461;SDS011;6803;45.264;5.468;2023-08-07T07:25:17;3.87;;;1.33;;
13461;SDS011;6803;45.264;5.468;2023-08-07T07:27:48;2.10;;;1.27;;
13461;SDS011;6803;45.264;5.468;2023-08-07T07:30:18;3.00;;;1.23;;
13461;SDS011;6803;45.264;5.468;2023-08-07T07:32:50;3.37;;;1.97;;
13461;SDS011;6803;45.264;5.468;2023-08-07T07:35:21;1.17;;;0.97;;
13461;SDS011;6803;45.264;5.468;2023-08-07T07:37:52;1.50;;;1.10;;
13461;SDS011;6803;45.264;5.468;2023-08-07T07:40:23;1.13;;;0.87;;
13461;SDS011;6803;45.264;5.468;2023-08-07T07:42:53;2.23;;;1.10;;
13461;SDS011;6803;45.264;5.468;2023-08-07T07:45:24;1.47;;;1.00;;
13461;SDS011;6803;45.264;5.468;2023-08-07T07:47:55;2.33;;;1.30;;
13461;SDS011;6803;45.264;5.468;2023-08-07T07:50:26;1.33;;;1.10;;
13461;SDS011;6803;45.264;5.468;2023-08-07T07:52:57;2.03;;;1.00;;
13461;SDS011;6803;45.264;5.468;2023-08-07T07:55:28;3.20;;;1.20;;
13461;SDS011;6803;45.264;5.468;2023-08-07T07:58:00;2.33;;;1.17;;
13461;SDS011;6803;45.264;5.468;2023-08-07T08:00:30;1.40;;;1.03;;
13461;SDS011;6803;45.264;5.468;2023-08-07T08:03:01;1.73;;;0.90;;
13461;SDS011;6803;45.264;5.468;2023-08-07T08:05:32;1.30;;;1.10;;
13461;SDS011;6803;45.264;5.468;2023-08-07T08:08:03;4.07;;;1.10;;
13461;SDS011;6803;45.264;5.468;2023-08-07T08:10:35;1.87;;;1.13;;
13461;SDS011;6803;45.264;5.468;2023-08-07T08:13:06;2.20;;;1.10;;
13461;SDS011;6803;45.264;5.468;2023-08-07T08:15:46;1.37;;;0.90;;
13461;SDS011;6803;45.264;5.468;2023-08-07T08:18:17;1.03;;;0.90;;
13461;SDS011;6803;45.264;5.468;2023-08-07T08:20:48;1.80;;;0.87;;
13461;SDS011;6803;45.264;5.468;2023-08-07T08:23:19;2.10;;;1.13;;
13461;SDS011;6803;45.264;5.468;2023-08-07T08:25:49;1.77;;;1.10;;
13461;SDS011;6803;45.264;5.468;2023-08-07T08:28:20;2.13;;;0.80;;
13461;SDS011;6803;45.264;5.468;2023-08-07T08:30:52;1.83;;;1.00;;
13461;SDS011;6803;45.264;5.468;2023-08-07T08:33:23;4.33;;;1.27;;
13461;SDS011;6803;45.264;5.468;2023-08-07T08:35:54;1.30;;;0.80;;
13461;SDS011;6803;45.264;5.468;2023-08-07T08:38:25;1.87;;;0.73;;
13461;SDS011;6803;45.264;5.468;2023-08-07T08:40:58;1.53;;;0.90;;
13461;SDS011;6803;45.264;5.468;2023-08-07T08:43:32;1.40;;;0.70;;
13461;SDS011;6803;45.264;5.468;2023-08-07T08:46:04;1.67;;;0.80;;
13461;SDS011;6803;45.264;5.468;2023-08-07T08:48:37;2.87;;;0.80;;
13461;SDS011;6803;45.264;5.468;2023-08-07T08:51:09;0.83;;;0.67;;
13461;SDS011;6803;45.264;5.468;2023-08-07T08:53:41;0.77;;;0.60;;
13461;SDS011;6803;45.264;5.468;2023-08-07T08:56:12;1.00;;;0.70;;
13461;SDS011;6803;45.264;5.468;2023-08-07T08:58:42;0.60;;;0.50;;
13461;SDS011;6803;45.264;5.468;2023-08-07T09:01:13;0.70;;;0.60;;
13461;SDS011;6803;45.264;5.468;2023-08-07T09:03:46;1.40;;;0.57;;
13461;SDS011;6803;45.264;5.468;2023-08-07T09:06:16;1.20;;;0.70;;
13461;SDS011;6803;45.264;5.468;2023-08-07T09:08:48;0.73;;;0.73;;
13461;SDS011;6803;45.264;5.468;2023-08-07T09:11:20;2.83;;;0.87;;
13461;SDS011;6803;45.264;5.468;2023-08-07T09:13:51;1.20;;;0.50;;
13461;SDS011;6803;45.264;5.468;2023-08-07T09:16:25;2.33;;;0.70;;
13461;SDS011;6803;45.264;5.468;2023-08-07T09:18:57;1.17;;;0.80;;
13461;SDS011;6803;45.264;5.468;2023-08-07T09:21:29;1.80;;;0.53;;
13461;SDS011;6803;45.264;5.468;2023-08-07T09:24:00;0.30;;;0.27;;
13461;SDS011;6803;45.264;5.468;2023-08-07T09:26:32;1.27;;;0.70;;
13461;SDS011;6803;45.264;5.468;2023-08-07T09:29:03;1.03;;;0.67;;
13461;SDS011;6803;45.264;5.468;2023-08-07T09:31:35;1.90;;;0.83;;
13461;SDS011;6803;45.264;5.468;2023-08-07T09:34:06;0.63;;;0.60;;
13461;SDS011;6803;45.264;5.468;2023-08-07T09:36:37;1.40;;;0.30;;
13461;SDS011;6803;45.264;5.468;2023-08-07T09:39:08;1.80;;;0.67;;
13461;SDS011;6803;45.264;5.468;2023-08-07T09:41:39;1.67;;;0.70;;
13461;SDS011;6803;45.264;5.468;2023-08-07T09:44:10;1.23;;;0.60;;
13461;SDS011;6803;45.264;5.468;2023-08-07T09:46:41;0.87;;;0.60;;
13461;SDS011;6803;45.264;5.468;2023-08-07T09:49:13;0.37;;;0.37;;
13461;SDS011;6803;45.264;5.468;2023-08-07T09:51:45;0.65;;;0.55;;
13461;SDS011;6803;45.264;5.468;2023-08-07T09:54:18;0.80;;;0.50;;
13461;SDS011;6803;45.264;5.468;2023-08-07T09:56:49;1.00;;;0.60;;
13461;SDS011;6803;45.264;5.468;2023-08-07T09:59:22;0.75;;;0.60;;
13461;SDS011;6803;45.264;5.468;2023-08-07T10:01:53;1.10;;;0.70;;
13461;SDS011;6803;45.264;5.468;2023-08-07T10:04:25;2.63;;;0.50;;
13461;SDS011;6803;45.264;5.468;2023-08-07T10:06:57;0.70;;;0.53;;
13461;SDS011;6803;45.264;5.468;2023-08-07T10:09:29;1.70;;;0.60;;
13461;SDS011;6803;45.264;5.468;2023-08-07T10:12:00;1.07;;;0.63;;
13461;SDS011;6803;45.264;5.468;2023-08-07T10:14:33;2.87;;;0.70;;
13461;SDS011;6803;45.264;5.468;2023-08-07T10:17:04;0.50;;;0.40;;
13461;SDS011;6803;45.264;5.468;2023-08-07T10:19:36;1.00;;;0.60;;
13461;SDS011;6803;45.264;5.468;2023-08-07T10:22:07;1.00;;;0.50;;
13461;SDS011;6803;45.264;5.468;2023-08-07T10:24:38;0.43;;;0.43;;
13461;SDS011;6803;45.264;5.468;2023-08-07T10:27:11;0.60;;;0.50;;
13461;SDS011;6803;45.264;5.468;2023-08-07T10:29:44;0.50;;;0.40;;
13461;SDS011;6803;45.264;5.468;2023-08-07T10:32:19;1.17;;;0.70;;
13461;SDS011;6803;45.264;5.468;2023-08-07T10:34:52;0.88;;;0.65;;
13461;SDS011;6803;45.264;5.468;2023-08-07T10:37:32;0.73;;;0.60;;
13461;SDS011;6803;45.264;5.468;2023-08-07T10:40:11;0.60;;;0.50;;
13461;SDS011;6803;45.264;5.468;2023-08-07T10:42:52;1.70;;;0.70;;
13461;SDS011;6803;45.264;5.468;2023-08-07T10:45:28;1.07;;;0.73;;
13461;SDS011;6803;45.264;5.468;2023-08-07T10:48:02;2.50;;;0.70;;
13461;SDS011;6803;45.264;5.468;2023-08-07T10:53:31;0.80;;;0.60;;
13461;SDS011;6803;45.264;5.468;2023-08-07T10:56:04;0.80;;;0.63;;
13461;SDS011;6803;45.264;5.468;2023-08-07T10:58:38;0.60;;;0.53;;
13461;SDS011;6803;45.264;5.468;2023-08-07T11:01:16;1.90;;;0.67;;
13461;SDS011;6803;45.264;5.468;2023-08-07T11:03:49;2.83;;;0.60;;
13461;SDS011;6803;45.264;5.468;2023-08-07T11:06:23;1.17;;;0.70;;
13461;SDS011;6803;45.264;5.468;2023-08-07T11:08:55;1.10;;;0.60;;
13461;SDS011;6803;45.264;5.468;2023-08-07T11:11:27;1.63;;;0.80;;
13461;SDS011;6803;45.264;5.468;2023-08-07T11:13:58;0.70;;;0.50;;
13461;SDS011;6803;45.264;5.468;2023-08-07T11:16:29;1.30;;;0.70;;
13461;SDS011;6803;45.264;5.468;2023-08-07T11:19:01;0.88;;;0.40;;
13461;SDS011;6803;45.264;5.468;2023-08-07T11:21:33;0.88;;;0.50;;
13461;SDS011;6803;45.264;5.468;2023-08-07T11:24:05;1.73;;;0.70;;
13461;SDS011;6803;45.264;5.468;2023-08-07T11:26:35;0.67;;;0.40;;
13461;SDS011;6803;45.264;5.468;2023-08-07T11:29:06;0.90;;;0.70;;
13461;SDS011;6803;45.264;5.468;2023-08-07T11:31:37;0.90;;;0.60;;
13461;SDS011;6803;45.264;5.468;2023-08-07T11:34:08;0.75;;;0.60;;
13461;SDS011;6803;45.264;5.468;2023-08-07T11:36:41;0.63;;;0.47;;
13461;SDS011;6803;45.264;5.468;2023-08-07T11:39:13;0.60;;;0.60;;
13461;SDS011;6803;45.264;5.468;2023-08-07T11:41:45;1.02;;;0.50;;
13461;SDS011;6803;45.264;5.468;2023-08-07T11:44:16;0.68;;;0.60;;
13461;SDS011;6803;45.264;5.468;2023-08-07T11:46:46;0.93;;;0.60;;
13461;SDS011;6803;45.264;5.468;2023-08-07T11:49:19;0.62;;;0.50;;
13461;SDS011;6803;45.264;5.468;2023-08-07T11:51:50;1.35;;;0.60;;
13461;SDS011;6803;45.264;5.468;2023-08-07T11:54:20;1.00;;;0.47;;
13461;SDS011;6803;45.264;5.468;2023-08-07T11:56:51;0.50;;;0.45;;
13461;SDS011;6803;45.264;5.468;2023-08-07T11:59:23;0.93;;;0.60;;
13461;SDS011;6803;45.264;5.468;2023-08-07T12:01:54;0.40;;;0.40;;
13461;SDS011;6803;45.264;5.468;2023-08-07T12:04:25;0.90;;;0.70;;
13461;SDS011;6803;45.264;5.468;2023-08-07T12:06:57;0.80;;;0.45;;
13461;SDS011;6803;45.264;5.468;2023-08-07T12:09:28;1.17;;;0.70;;
13461;SDS011;6803;45.264;5.468;2023-08-07T12:12:01;2.62;;;0.60;;
13461;SDS011;6803;45.264;5.468;2023-08-07T12:14:35;0.75;;;0.53;;
13461;SDS011;6803;45.264;5.468;2023-08-07T12:17:09;0.78;;;0.42;;
13461;SDS011;6803;45.264;5.468;2023-08-07T12:19:40;1.07;;;0.72;;
13461;SDS011;6803;45.264;5.468;2023-08-07T12:22:13;1.00;;;0.50;;
13461;SDS011;6803;45.264;5.468;2023-08-07T12:24:45;0.60;;;0.50;;
13461;SDS011;6803;45.264;5.468;2023-08-07T12:27:16;0.82;;;0.60;;
13461;SDS011;6803;45.264;5.468;2023-08-07T12:29:47;0.70;;;0.70;;
13461;SDS011;6803;45.264;5.468;2023-08-07T12:32:18;3.12;;;0.70;;
13461;SDS011;6803;45.264;5.468;2023-08-07T12:34:48;0.60;;;0.40;;
13461;SDS011;6803;45.264;5.468;2023-08-07T12:37:23;1.72;;;0.80;;
13461;SDS011;6803;45.264;5.468;2023-08-07T12:39:53;0.50;;;0.50;;
13461;SDS011;6803;45.264;5.468;2023-08-07T12:42:26;1.05;;;0.60;;
13461;SDS011;6803;45.264;5.468;2023-08-07T12:44:57;0.62;;;0.60;;
13461;SDS011;6803;45.264;5.468;2023-08-07T12:47:28;1.87;;;0.62;;
13461;SDS011;6803;45.264;5.468;2023-08-07T12:49:59;0.62;;;0.35;;
13461;SDS011;6803;45.264;5.468;2023-08-07T12:52:31;0.72;;;0.53;;
13461;SDS011;6803;45.264;5.468;2023-08-07T12:55:02;1.35;;;0.82;;
13461;SDS011;6803;45.264;5.468;2023-08-07T12:57:35;0.60;;;0.60;;
13461;SDS011;6803;45.264;5.468;2023-08-07T13:00:08;1.20;;;0.60;;
13461;SDS011;6803;45.264;5.468;2023-08-07T13:02:43;0.75;;;0.57;;
13461;SDS011;6803;45.264;5.468;2023-08-07T13:05:15;1.95;;;0.50;;
13461;SDS011;6803;45.264;5.468;2023-08-07T13:07:47;0.50;;;0.50;;
13461;SDS011;6803;45.264;5.468;2023-08-07T13:10:20;0.80;;;0.62;;
13461;SDS011;6803;45.264;5.468;2023-08-07T13:12:51;1.25;;;0.50;;
13461;SDS011;6803;45.264;5.468;2023-08-07T13:15:21;2.75;;;0.90;;
13461;SDS011;6803;45.264;5.468;2023-08-07T13:17:53;0.60;;;0.40;;
13461;SDS011;6803;45.264;5.468;2023-08-07T13:20:24;3.60;;;0.53;;
13461;SDS011;6803;45.264;5.468;2023-08-07T13:22:55;2.60;;;0.50;;
13461;SDS011;6803;45.264;5.468;2023-08-07T13:25:26;0.47;;;0.47;;
13461;SDS011;6803;45.264;5.468;2023-08-07T13:27:57;0.62;;;0.60;;
13461;SDS011;6803;45.264;5.468;2023-08-07T13:30:28;0.62;;;0.60;;
13461;SDS011;6803;45.264;5.468;2023-08-07T13:33:00;1.22;;;0.60;;
13461;SDS011;6803;45.264;5.468;2023-08-07T13:35:31;0.62;;;0.53;;
13461;SDS011;6803;45.264;5.468;2023-08-07T13:38:02;2.15;;;0.68;;
13461;SDS011;6803;45.264;5.468;2023-08-07T13:40:34;0.68;;;0.50;;
13461;SDS011;6803;45.264;5.468;2023-08-07T13:43:06;0.60;;;0.50;;
13461;SDS011;6803;45.264;5.468;2023-08-07T13:45:37;0.50;;;0.37;;
13461;SDS011;6803;45.264;5.468;2023-08-07T13:48:08;2.25;;;0.80;;
13461;SDS011;6803;45.264;5.468;2023-08-07T13:50:39;1.98;;;0.70;;
13461;SDS011;6803;45.264;5.468;2023-08-07T13:53:09;1.77;;;0.65;;
13461;SDS011;6803;45.264;5.468;2023-08-07T13:55:42;0.78;;;0.78;;
13461;SDS011;6803;45.264;5.468;2023-08-07T13:58:13;1.30;;;0.50;;
13461;SDS011;6803;45.264;5.468;2023-08-07T14:00:44;0.85;;;0.62;;
13461;SDS011;6803;45.264;5.468;2023-08-07T14:03:16;1.75;;;0.82;;
13461;SDS011;6803;45.264;5.468;2023-08-07T14:05:47;0.47;;;0.47;;
13461;SDS011;6803;45.264;5.468;2023-08-07T14:08:18;1.60;;;0.70;;
13461;SDS011;6803;45.264;5.468;2023-08-07T14:10:49;1.22;;;0.62;;
13461;SDS011;6803;45.264;5.468;2023-08-07T14:13:20;0.90;;;0.62;;
13461;SDS011;6803;45.264;5.468;2023-08-07T14:15:50;0.72;;;0.40;;
13461;SDS011;6803;45.264;5.468;2023-08-07T14:18:21;0.95;;;0.60;;
13461;SDS011;6803;45.264;5.468;2023-08-07T14:20:52;1.20;;;0.60;;
13461;SDS011;6803;45.264;5.468;2023-08-07T14:23:24;0.80;;;0.70;;
13461;SDS011;6803;45.264;5.468;2023-08-07T14:25:57;0.47;;;0.47;;
13461;SDS011;6803;45.264;5.468;2023-08-07T14:28:27;1.00;;;0.60;;
13461;SDS011;6803;45.264;5.468;2023-08-07T14:30:58;1.00;;;0.60;;
13461;SDS011;6803;45.264;5.468;2023-08-07T14:33:29;0.80;;;0.65;;
13461;SDS011;6803;45.264;5.468;2023-08-07T14:36:00;1.07;;;0.60;;
13461;SDS011;6803;45.264;5.468;2023-08-07T14:38:31;0.60;;;0.60;;
13461;SDS011;6803;45.264;5.468;2023-08-07T14:41:02;1.40;;;0.55;;
13461;SDS011;6803;45.264;5.468;2023-08-07T14:43:33;1.37;;;0.72;;
13461;SDS011;6803;45.264;5.468;2023-08-07T14:46:04;0.53;;;0.53;;
13461;SDS011;6803;45.264;5.468;2023-08-07T14:48:34;1.37;;;0.68;;
13461;SDS011;6803;45.264;5.468;2023-08-07T14:51:05;1.37;;;0.60;;
13461;SDS011;6803;45.264;5.468;2023-08-07T14:53:36;2.37;;;0.60;;
13461;SDS011;6803;45.264;5.468;2023-08-07T14:56:07;0.60;;;0.47;;
13461;SDS011;6803;45.264;5.468;2023-08-07T14:58:37;1.10;;;0.60;;
13461;SDS011;6803;45.264;5.468;2023-08-07T15:01:08;1.42;;;0.40;;
13461;SDS011;6803;45.264;5.468;2023-08-07T15:03:39;0.68;;;0.55;;
13461;SDS011;6803;45.264;5.468;2023-08-07T15:06:10;0.75;;;0.37;;
13461;SDS011;6803;45.264;5.468;2023-08-07T15:08:41;2.08;;;0.55;;
13461;SDS011;6803;45.264;5.468;2023-08-07T15:11:12;1.47;;;0.60;;
13461;SDS011;6803;45.264;5.468;2023-08-07T15:13:44;0.60;;;0.60;;
13461;SDS011;6803;45.264;5.468;2023-08-07T15:16:15;0.90;;;0.50;;
13461;SDS011;6803;45.264;5.468;2023-08-07T15:18:45;1.32;;;0.72;;
13461;SDS011;6803;45.264;5.468;2023-08-07T15:21:17;1.45;;;0.50;;
13461;SDS011;6803;45.264;5.468;2023-08-07T15:23:49;2.15;;;0.70;;
13461;SDS011;6803;45.264;5.468;2023-08-07T15:26:20;1.35;;;0.60;;
13461;SDS011;6803;45.264;5.468;2023-08-07T15:28:51;0.57;;;0.53;;
13461;SDS011;6803;45.264;5.468;2023-08-07T15:31:22;2.40;;;0.75;;